^^
Grace C. Lehan Memorial Weather Station Historical Data
Daily Summary for December 30, 2021 Units:  Both    English   Metric
Daily Weekly Monthly Yearly
  High: Low: Average:
Temperature: 44.8 °F /  7.1 °C 39.2 °F /  4 °C 42.5 °F /  5.8 °C
Dew Point: 43.2 °F /  6.2 °C 37.9 °F /  3.3 °C 41.2 °F /  5.1 °C
Humidity: 97% 92% 95%
Wind Speed: 0.9mph /  1.4km/h - 0mph /  0km/h
Wind Gust: 4mph /  6.4km/h - -
Wind- - NE
Pressure: 29.98 in /  1015.1 hPa 29.88 in /  1011.7 hPa -
Precipitation: 0.12 in /  3.05 mm    
 
 
Tabular Data for December 30, 2021
Time Temperature Dew Point Pressure Wind Wind Speed Wind Gust Humidity Rainfall Rate (Hourly) solar
00:04 39.3 °F /  4.1 °C 38 °F /  3.3 °C 29.98in /  1015.1hPa Calm   4mph /  6.4km/h 95% 0.01in /  0.25mm 0 W/m2
00:09 39.3 °F /  4.1 °C 38 °F /  3.3 °C 29.97in /  1014.8hPa Calm     95% 0.00in /  0mm 0 W/m2
00:14 39.3 °F /  4.1 °C 38 °F /  3.3 °C 29.97in /  1014.8hPa Calm     95% 0.00in /  0mm 0 W/m2
00:19 39.3 °F /  4.1 °C 38 °F /  3.3 °C 29.97in /  1014.8hPa NE 0.1mph /  0.2km/h 2mph /  3.2km/h 95% 0.00in /  0mm 0 W/m2
00:24 39.3 °F /  4.1 °C 38 °F /  3.3 °C 29.96in /  1014.4hPa Calm   2mph /  3.2km/h 95% 0.00in /  0mm 0 W/m2
00:29 39.3 °F /  4.1 °C 38 °F /  3.3 °C 29.95in /  1014.1hPa Calm   2mph /  3.2km/h 95% 0.01in /  0.25mm 0 W/m2
00:34 39.3 °F /  4.1 °C 38 °F /  3.3 °C 29.95in /  1014.1hPa Calm   2mph /  3.2km/h 95.2% 0.01in /  0.25mm 0 W/m2
00:39 39.3 °F /  4.1 °C 38.3 °F /  3.5 °C 29.95in /  1014.1hPa Calm     96% 0.01in /  0.25mm 0 W/m2
00:44 39.3 °F /  4.1 °C 38.3 °F /  3.5 °C 29.95in /  1014.1hPa Calm     96% 0.01in /  0.25mm 0 W/m2
00:49 39.3 °F /  4.1 °C 38.1 °F /  3.4 °C 29.95in /  1014.1hPa Calm     95.5% 0.01in /  0.25mm 0 W/m2
00:50 39.3 °F /  4.1 °C 38 °F /  3.3 °C 29.95in /  1014.1hPa Calm     95% 0.01in /  0.25mm 0 W/m2
01:00 39.3 °F /  4.1 °C 38 °F /  3.3 °C 29.94in /  1013.8hPa Calm     95% 0.01in /  0.25mm 0 W/m2
01:30 39.3 °F /  4.1 °C 38 °F /  3.3 °C 29.94in /  1013.8hPa Calm   3mph /  4.8km/h 95% 0.01in /  0.25mm 0 W/m2
02:00 39.2 °F /  4 °C 37.9 °F /  3.3 °C 29.93in /  1013.4hPa Calm     95% 0.00in /  0mm 0 W/m2
02:30 39.3 °F /  4.1 °C 38.3 °F /  3.5 °C 29.93in /  1013.4hPa Calm     96% 0.01in /  0.25mm 0 W/m2
03:00 39.3 °F /  4.1 °C 38.3 °F /  3.5 °C 29.93in /  1013.4hPa Calm     96% 0.01in /  0.25mm 0 W/m2
03:30 39.3 °F /  4.1 °C 38.3 °F /  3.5 °C 29.92in /  1013.1hPa Calm   2mph /  3.2km/h 96% 0.01in /  0.25mm 0 W/m2
04:09 39.3 °F /  4.1 °C 38.3 °F /  3.5 °C 29.90in /  1012.4hPa Calm     96% 0.01in /  0.25mm 0 W/m2
04:14 39.3 °F /  4.1 °C 38.3 °F /  3.5 °C 29.90in /  1012.4hPa Calm     96% 0.01in /  0.25mm 0 W/m2
04:19 39.4 °F /  4.1 °C 38.3 °F /  3.5 °C 29.90in /  1012.4hPa Calm     96% 0.01in /  0.25mm 0 W/m2
04:24 39.4 °F /  4.1 °C 38.4 °F /  3.6 °C 29.90in /  1012.4hPa Calm     96% 0.01in /  0.25mm 0 W/m2
04:29 39.5 °F /  4.2 °C 38.4 °F /  3.6 °C 29.90in /  1012.4hPa Calm     96% 0.01in /  0.25mm 0 W/m2
04:34 39.5 °F /  4.2 °C 38.5 °F /  3.6 °C 29.91in /  1012.8hPa Calm     96% 0.01in /  0.25mm 0 W/m2
04:39 39.5 °F /  4.2 °C 38.5 °F /  3.6 °C 29.90in /  1012.4hPa Calm     96% 0.01in /  0.25mm 0 W/m2
04:44 39.5 °F /  4.2 °C 38.5 °F /  3.6 °C 29.91in /  1012.8hPa Calm     96% 0.01in /  0.25mm 0 W/m2
04:49 39.5 °F /  4.2 °C 38.5 °F /  3.6 °C 29.91in /  1012.8hPa Calm     96% 0.01in /  0.25mm 0 W/m2
04:54 39.5 °F /  4.2 °C 38.5 °F /  3.6 °C 29.91in /  1012.8hPa NE 0.1mph /  0.2km/h 2mph /  3.2km/h 96% 0.02in /  0.51mm 0 W/m2
04:59 39.5 °F /  4.2 °C 38.5 °F /  3.6 °C 29.91in /  1012.8hPa Calm   2mph /  3.2km/h 96% 0.02in /  0.51mm 0 W/m2
05:04 39.5 °F /  4.2 °C 38.5 °F /  3.6 °C 29.90in /  1012.4hPa Calm   2mph /  3.2km/h 96% 0.02in /  0.51mm 0 W/m2
05:09 39.6 °F /  4.2 °C 38.6 °F /  3.7 °C 29.90in /  1012.4hPa Calm     96% 0.01in /  0.25mm 0 W/m2
05:14 39.6 °F /  4.2 °C 38.6 °F /  3.7 °C 29.91in /  1012.8hPa NE 0.5mph /  0.8km/h 3mph /  4.8km/h 96% 0.01in /  0.25mm 0 W/m2
05:19 39.6 °F /  4.2 °C 38.6 °F /  3.7 °C 29.91in /  1012.8hPa Calm   3mph /  4.8km/h 96% 0.01in /  0.25mm 0 W/m2
05:24 39.6 °F /  4.2 °C 38.6 °F /  3.7 °C 29.91in /  1012.8hPa Calm   3mph /  4.8km/h 96% 0.01in /  0.25mm 0 W/m2
05:29 39.7 °F /  4.3 °C 38.6 °F /  3.7 °C 29.91in /  1012.8hPa Calm   3mph /  4.8km/h 96% 0.01in /  0.25mm 0 W/m2
05:34 39.7 °F /  4.3 °C 38.7 °F /  3.7 °C 29.91in /  1012.8hPa Calm   3mph /  4.8km/h 96% 0.01in /  0.25mm 0 W/m2
05:39 39.7 °F /  4.3 °C 38.7 °F /  3.7 °C 29.91in /  1012.8hPa Calm     96% 0.01in /  0.25mm 0 W/m2
05:44 39.7 °F /  4.3 °C 38.7 °F /  3.7 °C 29.91in /  1012.8hPa Calm     96% 0.01in /  0.25mm 0 W/m2
05:49 39.7 °F /  4.3 °C 38.7 °F /  3.7 °C 29.91in /  1012.8hPa Calm     96% 0.01in /  0.25mm 0 W/m2
05:54 39.7 °F /  4.3 °C 38.7 °F /  3.7 °C 29.91in /  1012.8hPa Calm     96% 0.02in /  0.51mm 0 W/m2
05:59 39.7 °F /  4.3 °C 38.7 °F /  3.7 °C 29.91in /  1012.8hPa Calm     96% 0.02in /  0.51mm 0 W/m2
06:04 39.7 °F /  4.3 °C 38.6 °F /  3.7 °C 29.91in /  1012.8hPa Calm     96% 0.02in /  0.51mm 0 W/m2
06:09 39.6 °F /  4.2 °C 38.6 °F /  3.7 °C 29.92in /  1013.1hPa Calm     96% 0.01in /  0.25mm 0 W/m2
06:14 39.6 °F /  4.2 °C 38.6 °F /  3.7 °C 29.92in /  1013.1hPa Calm     96% 0.01in /  0.25mm 0 W/m2
06:19 39.6 °F /  4.2 °C 38.6 °F /  3.7 °C 29.92in /  1013.1hPa Calm     96% 0.01in /  0.25mm 0 W/m2
06:24 39.7 °F /  4.3 °C 38.6 °F /  3.7 °C 29.92in /  1013.1hPa Calm     96% 0.01in /  0.25mm 0 W/m2
06:29 39.7 °F /  4.3 °C 38.6 °F /  3.7 °C 29.92in /  1013.1hPa Calm     96% 0.01in /  0.25mm 0 W/m2
06:34 39.7 °F /  4.3 °C 38.6 °F /  3.7 °C 29.92in /  1013.1hPa Calm     96% 0.01in /  0.25mm 0 W/m2
06:39 39.7 °F /  4.3 °C 38.7 °F /  3.7 °C 29.92in /  1013.1hPa Calm     96% 0.01in /  0.25mm 0 W/m2
06:41 39.7 °F /  4.3 °C 38.7 °F /  3.7 °C 29.92in /  1013.1hPa Calm     96% 0.01in /  0.25mm 0 W/m2
07:00 39.8 °F /  4.3 °C 38.8 °F /  3.8 °C 29.93in /  1013.4hPa Calm   3mph /  4.8km/h 96% 0.02in /  0.51mm 0 W/m2
07:30 39.8 °F /  4.3 °C 38.8 °F /  3.8 °C 29.93in /  1013.4hPa Calm     96% 0.02in /  0.51mm 0 W/m2
08:09 39.9 °F /  4.4 °C 38.8 °F /  3.8 °C 29.94in /  1013.8hPa NE 0.1mph /  0.2km/h 2mph /  3.2km/h 96% 0.03in /  0.76mm 14 W/m2
08:14 39.9 °F /  4.4 °C 38.8 °F /  3.8 °C 29.94in /  1013.8hPa Calm   2mph /  3.2km/h 96% 0.03in /  0.76mm 14 W/m2
08:19 39.9 °F /  4.4 °C 38.9 °F /  3.8 °C 29.94in /  1013.8hPa Calm   2mph /  3.2km/h 96% 0.03in /  0.76mm 12 W/m2
08:24 40 °F /  4.4 °C 39 °F /  3.9 °C 29.95in /  1014.1hPa Calm   2mph /  3.2km/h 96% 0.03in /  0.76mm 14 W/m2
08:29 40.1 °F /  4.5 °C 39 °F /  3.9 °C 29.95in /  1014.1hPa Calm   2mph /  3.2km/h 96% 0.03in /  0.76mm 14 W/m2
08:34 40.1 °F /  4.5 °C 39.1 °F /  3.9 °C 29.95in /  1014.1hPa NE 0.1mph /  0.2km/h 3mph /  4.8km/h 96% 0.03in /  0.76mm 18 W/m2
08:39 40.1 °F /  4.5 °C 39.1 °F /  3.9 °C 29.95in /  1014.1hPa Calm   3mph /  4.8km/h 96% 0.01in /  0.25mm 16 W/m2
08:44 40.2 °F /  4.6 °C 39.2 °F /  4 °C 29.95in /  1014.1hPa Calm   3mph /  4.8km/h 96% 0.01in /  0.25mm 23 W/m2
08:49 40.2 °F /  4.6 °C 39.2 °F /  4 °C 29.95in /  1014.1hPa Calm   3mph /  4.8km/h 96% 0.01in /  0.25mm 23 W/m2
08:54 40.3 °F /  4.6 °C 39.2 °F /  4 °C 29.96in /  1014.4hPa NE 0.5mph /  0.8km/h 3mph /  4.8km/h 96% 0.01in /  0.25mm 21 W/m2
08:59 40.3 °F /  4.6 °C 39.3 °F /  4.1 °C 29.96in /  1014.4hPa NE 0.1mph /  0.2km/h 3mph /  4.8km/h 96% 0.01in /  0.25mm 21 W/m2
09:04 40.3 °F /  4.6 °C 39.3 °F /  4.1 °C 29.95in /  1014.1hPa Calm   3mph /  4.8km/h 96% 0.01in /  0.25mm 28 W/m2
09:09 40.4 °F /  4.7 °C 39.3 °F /  4.1 °C 29.95in /  1014.1hPa Calm     96% 0.01in /  0.25mm 28 W/m2
09:14 40.4 °F /  4.7 °C 39.3 °F /  4.1 °C 29.95in /  1014.1hPa Calm     96% 0.01in /  0.25mm 26 W/m2
09:19 40.4 °F /  4.7 °C 39.4 °F /  4.1 °C 29.96in /  1014.4hPa Calm     96% 0.01in /  0.25mm 26 W/m2
09:24 40.5 °F /  4.7 °C 39.4 °F /  4.1 °C 29.96in /  1014.4hPa Calm     96% 0.01in /  0.25mm 23 W/m2
09:29 40.5 °F /  4.7 °C 39.5 °F /  4.2 °C 29.95in /  1014.1hPa Calm     96% 0.01in /  0.25mm 25 W/m2
09:34 40.5 °F /  4.7 °C 39.5 °F /  4.2 °C 29.95in /  1014.1hPa Calm     96% 0.01in /  0.25mm 28 W/m2
09:39 40.5 °F /  4.7 °C 39.5 °F /  4.2 °C 29.96in /  1014.4hPa Calm     96% 0.01in /  0.25mm 32 W/m2
09:44 40.5 °F /  4.7 °C 39.5 °F /  4.2 °C 29.95in /  1014.1hPa Calm     96% 0.01in /  0.25mm 35 W/m2
09:49 40.6 °F /  4.8 °C 39.5 °F /  4.2 °C 29.95in /  1014.1hPa Calm     96% 0.01in /  0.25mm 33 W/m2
09:54 40.6 °F /  4.8 °C 39.6 °F /  4.2 °C 29.96in /  1014.4hPa Calm     96% 0.01in /  0.25mm 28 W/m2
09:59 40.7 °F /  4.8 °C 39.6 °F /  4.2 °C 29.96in /  1014.4hPa Calm     96% 0.01in /  0.25mm 25 W/m2
10:04 40.7 °F /  4.8 °C 39.6 °F /  4.2 °C 29.96in /  1014.4hPa Calm     96% 0.01in /  0.25mm 26 W/m2
10:09 40.7 °F /  4.8 °C 39.7 °F /  4.3 °C 29.95in /  1014.1hPa Calm     96% 0.01in /  0.25mm 32 W/m2
10:14 40.8 °F /  4.9 °C 39.7 °F /  4.3 °C 29.95in /  1014.1hPa Calm     96% 0.01in /  0.25mm 35 W/m2
10:19 40.8 °F /  4.9 °C 39.8 °F /  4.3 °C 29.95in /  1014.1hPa Calm     96% 0.01in /  0.25mm 51 W/m2
10:24 40.8 °F /  4.9 °C 39.8 °F /  4.3 °C 29.94in /  1013.8hPa Calm     96% 0.01in /  0.25mm 56 W/m2
10:29 40.9 °F /  4.9 °C 39.8 °F /  4.3 °C 29.94in /  1013.8hPa Calm     96% 0.01in /  0.25mm 53 W/m2
10:34 41 °F /  5 °C 39.9 °F /  4.4 °C 29.94in /  1013.8hPa Calm     96% 0.01in /  0.25mm 54 W/m2
10:39 41.1 °F /  5.1 °C 40.1 °F /  4.5 °C 29.94in /  1013.8hPa Calm     96% 0.00in /  0mm 49 W/m2
10:44 41.2 °F /  5.1 °C 40.2 °F /  4.6 °C 29.94in /  1013.8hPa Calm     96% 0.00in /  0mm 62 W/m2
10:49 41.2 °F /  5.1 °C 40.2 °F /  4.6 °C 29.93in /  1013.4hPa Calm     96% 0.00in /  0mm 62 W/m2
10:54 41.3 °F /  5.2 °C 40.2 °F /  4.6 °C 29.93in /  1013.4hPa Calm     96% 0.00in /  0mm 58 W/m2
10:59 41.4 °F /  5.2 °C 40.3 °F /  4.6 °C 29.93in /  1013.4hPa Calm     96% 0.00in /  0mm 69 W/m2
11:04 41.4 °F /  5.2 °C 40.4 °F /  4.7 °C 29.93in /  1013.4hPa Calm     96% 0.00in /  0mm 81 W/m2
11:09 41.5 °F /  5.3 °C 40.5 °F /  4.7 °C 29.93in /  1013.4hPa Calm     96% 0.00in /  0mm 74 W/m2
11:14 41.6 °F /  5.3 °C 40.5 °F /  4.7 °C 29.93in /  1013.4hPa Calm     96% 0.00in /  0mm 83 W/m2
11:19 41.7 °F /  5.4 °C 40.6 °F /  4.8 °C 29.93in /  1013.4hPa Calm     96% 0.00in /  0mm 72 W/m2
11:24 41.7 °F /  5.4 °C 40.7 °F /  4.8 °C 29.93in /  1013.4hPa Calm     96% 0.00in /  0mm 51 W/m2
11:29 41.8 °F /  5.4 °C 40.8 °F /  4.9 °C 29.93in /  1013.4hPa Calm     96% 0.00in /  0mm 51 W/m2
11:34 41.8 °F /  5.4 °C 40.8 °F /  4.9 °C 29.93in /  1013.4hPa Calm     96% 0.00in /  0mm 77 W/m2
11:39 41.9 °F /  5.5 °C 40.9 °F /  4.9 °C 29.92in /  1013.1hPa Calm     96% 0.00in /  0mm 127 W/m2
11:44 42 °F /  5.6 °C 41 °F /  5 °C 29.92in /  1013.1hPa Calm     96% 0.00in /  0mm 158 W/m2
11:49 42.1 °F /  5.6 °C 41.1 °F /  5.1 °C 29.92in /  1013.1hPa Calm     96% 0.00in /  0mm 156 W/m2
11:54 42.3 °F /  5.7 °C 41.2 °F /  5.1 °C 29.92in /  1013.1hPa Calm     96% 0.00in /  0mm 142 W/m2
11:59 42.4 °F /  5.8 °C 41.4 °F /  5.2 °C 29.91in /  1012.8hPa Calm     96% 0.00in /  0mm 174 W/m2
12:00 42.5 °F /  5.8 °C 41.4 °F /  5.2 °C 29.91in /  1012.8hPa Calm     96% 0.00in /  0mm 174 W/m2
12:09 42.9 °F /  6.1 °C 42.1 °F /  5.6 °C 29.91in /  1012.8hPa Calm     97% 0.00in /  0mm 146 W/m2
12:14 43.1 °F /  6.2 °C 42.2 °F /  5.7 °C 29.91in /  1012.8hPa Calm     96.6% 0.00in /  0mm 142 W/m2
12:19 43.2 °F /  6.2 °C 42.1 °F /  5.6 °C 29.91in /  1012.8hPa Calm     96% 0.00in /  0mm 114 W/m2
12:24 43.3 °F /  6.3 °C 42.2 °F /  5.7 °C 29.91in /  1012.8hPa Calm     96% 0.00in /  0mm 111 W/m2
12:29 43.3 °F /  6.3 °C 42.3 °F /  5.7 °C 29.90in /  1012.4hPa Calm     96% 0.00in /  0mm 127 W/m2
12:34 43.4 °F /  6.3 °C 42.5 °F /  5.8 °C 29.91in /  1012.8hPa Calm     96.6% 0.00in /  0mm 127 W/m2
12:39 43.6 °F /  6.4 °C 42.6 °F /  5.9 °C 29.91in /  1012.8hPa Calm     96% 0.00in /  0mm 132 W/m2
12:44 43.8 °F /  6.6 °C 42.9 °F /  6.1 °C 29.90in /  1012.4hPa NE 0.9mph /  1.4km/h 4mph /  6.4km/h 96.3% 0.00in /  0mm 134 W/m2
12:49 44 °F /  6.7 °C 43.2 °F /  6.2 °C 29.90in /  1012.4hPa Calm   4mph /  6.4km/h 97% 0.00in /  0mm 174 W/m2
12:54 44.2 °F /  6.8 °C 43.2 °F /  6.2 °C 29.90in /  1012.4hPa Calm   4mph /  6.4km/h 96.4% 0.00in /  0mm 141 W/m2
12:59 44.1 °F /  6.7 °C 43 °F /  6.1 °C 29.90in /  1012.4hPa NE 0.2mph /  0.3km/h 4mph /  6.4km/h 96% 0.00in /  0mm 134 W/m2
13:04 44 °F /  6.7 °C 42.9 °F /  6.1 °C 29.90in /  1012.4hPa NE 0.1mph /  0.2km/h 4mph /  6.4km/h 96% 0.00in /  0mm 142 W/m2
13:09 44 °F /  6.7 °C 42.9 °F /  6.1 °C 29.90in /  1012.4hPa Calm   2mph /  3.2km/h 96% 0.00in /  0mm 163 W/m2
13:14 43.9 °F /  6.6 °C 42.9 °F /  6.1 °C 29.89in /  1012.1hPa NE 0.2mph /  0.3km/h 2mph /  3.2km/h 96% 0.00in /  0mm 113 W/m2
13:19 44 °F /  6.7 °C 42.9 °F /  6.1 °C 29.89in /  1012.1hPa Calm   2mph /  3.2km/h 96% 0.00in /  0mm 109 W/m2
13:24 43.9 °F /  6.6 °C 42.8 °F /  6 °C 29.89in /  1012.1hPa Calm   2mph /  3.2km/h 96% 0.00in /  0mm 128 W/m2
13:29 43.9 °F /  6.6 °C 42.8 °F /  6 °C 29.90in /  1012.4hPa Calm   2mph /  3.2km/h 96% 0.00in /  0mm 97 W/m2
13:34 44 °F /  6.7 °C 42.7 °F /  5.9 °C 29.90in /  1012.4hPa Calm   2mph /  3.2km/h 95.1% 0.00in /  0mm 90 W/m2
13:39 44.1 °F /  6.7 °C 43 °F /  6.1 °C 29.89in /  1012.1hPa Calm     95.9% 0.00in /  0mm 81 W/m2
13:44 44.1 °F /  6.7 °C 42.8 °F /  6 °C 29.89in /  1012.1hPa Calm     95.1% 0.00in /  0mm 90 W/m2
13:49 44.2 °F /  6.8 °C 42.8 °F /  6 °C 29.89in /  1012.1hPa Calm     95% 0.00in /  0mm 100 W/m2
13:54 44.3 °F /  6.8 °C 42.9 °F /  6.1 °C 29.89in /  1012.1hPa Calm     95% 0.00in /  0mm 93 W/m2
13:59 44.3 °F /  6.8 °C 43 °F /  6.1 °C 29.89in /  1012.1hPa Calm     95% 0.00in /  0mm 98 W/m2
14:04 44.3 °F /  6.8 °C 43 °F /  6.1 °C 29.89in /  1012.1hPa NE 0.2mph /  0.3km/h 3mph /  4.8km/h 95% 0.00in /  0mm 107 W/m2
14:09 44.4 °F /  6.9 °C 43 °F /  6.1 °C 29.89in /  1012.1hPa Calm   3mph /  4.8km/h 95% 0.00in /  0mm 105 W/m2
14:14 44.5 °F /  6.9 °C 43.1 °F /  6.2 °C 29.89in /  1012.1hPa Calm   3mph /  4.8km/h 95% 0.00in /  0mm 109 W/m2
14:19 44.5 °F /  6.9 °C 42.9 °F /  6.1 °C 29.88in /  1011.7hPa Calm   3mph /  4.8km/h 94.2% 0.00in /  0mm 79 W/m2
14:24 44.6 °F /  7 °C 43 °F /  6.1 °C 29.89in /  1012.1hPa Calm   3mph /  4.8km/h 94% 0.00in /  0mm 72 W/m2
14:29 44.7 °F /  7.1 °C 43 °F /  6.1 °C 29.89in /  1012.1hPa Calm   3mph /  4.8km/h 94% 0.00in /  0mm 47 W/m2
14:34 44.7 °F /  7.1 °C 43.1 °F /  6.2 °C 29.89in /  1012.1hPa Calm   3mph /  4.8km/h 94% 0.00in /  0mm 42 W/m2
14:39 44.7 °F /  7.1 °C 43.1 °F /  6.2 °C 29.89in /  1012.1hPa Calm     94% 0.00in /  0mm 42 W/m2
14:44 44.8 °F /  7.1 °C 43.2 °F /  6.2 °C 29.89in /  1012.1hPa Calm     94% 0.00in /  0mm 39 W/m2
14:49 44.8 °F /  7.1 °C 43 °F /  6.1 °C 29.89in /  1012.1hPa Calm     93.3% 0.00in /  0mm 39 W/m2
14:54 44.8 °F /  7.1 °C 42.9 °F /  6.1 °C 29.89in /  1012.1hPa Calm     93% 0.00in /  0mm 42 W/m2
14:59 44.7 °F /  7.1 °C 42.8 °F /  6 °C 29.89in /  1012.1hPa Calm     93% 0.00in /  0mm 46 W/m2
15:04 44.7 °F /  7.1 °C 42.8 °F /  6 °C 29.89in /  1012.1hPa Calm     93% 0.00in /  0mm 40 W/m2
15:09 44.7 °F /  7.1 °C 42.8 °F /  6 °C 29.89in /  1012.1hPa Calm     93% 0.00in /  0mm 26 W/m2
15:14 44.8 °F /  7.1 °C 42.9 °F /  6.1 °C 29.90in /  1012.4hPa Calm     93% 0.00in /  0mm 21 W/m2
15:19 44.8 °F /  7.1 °C 42.9 °F /  6.1 °C 29.89in /  1012.1hPa Calm     93% 0.00in /  0mm 21 W/m2
15:24 44.8 °F /  7.1 °C 42.9 °F /  6.1 °C 29.89in /  1012.1hPa Calm     93% 0.00in /  0mm 30 W/m2
15:29 44.8 °F /  7.1 °C 42.9 °F /  6.1 °C 29.89in /  1012.1hPa Calm     93% 0.00in /  0mm 30 W/m2
15:34 44.8 °F /  7.1 °C 42.9 °F /  6.1 °C 29.89in /  1012.1hPa Calm     93% 0.00in /  0mm 25 W/m2
15:39 44.8 °F /  7.1 °C 42.9 °F /  6.1 °C 29.89in /  1012.1hPa Calm     93% 0.00in /  0mm 32 W/m2
15:44 44.8 °F /  7.1 °C 42.9 °F /  6.1 °C 29.89in /  1012.1hPa Calm     93% 0.00in /  0mm 30 W/m2
15:49 44.8 °F /  7.1 °C 42.9 °F /  6.1 °C 29.89in /  1012.1hPa Calm     93% 0.00in /  0mm 21 W/m2
15:54 44.8 °F /  7.1 °C 42.9 °F /  6.1 °C 29.89in /  1012.1hPa Calm     93% 0.00in /  0mm 14 W/m2
15:59 44.8 °F /  7.1 °C 42.9 °F /  6.1 °C 29.89in /  1012.1hPa Calm     93% 0.00in /  0mm 11 W/m2
16:00 44.8 °F /  7.1 °C 42.9 °F /  6.1 °C 29.89in /  1012.1hPa Calm     93% 0.00in /  0mm 9 W/m2
16:09 44.8 °F /  7.1 °C 42.8 °F /  6 °C 29.89in /  1012.1hPa Calm     92.7% 0.00in /  0mm 5 W/m2
16:14 44.7 °F /  7.1 °C 42.5 °F /  5.8 °C 29.89in /  1012.1hPa Calm     92% 0.00in /  0mm 5 W/m2
16:19 44.7 °F /  7.1 °C 42.5 °F /  5.8 °C 29.88in /  1011.7hPa Calm     92% 0.00in /  0mm 0 W/m2
16:24 44.6 °F /  7 °C 42.4 °F /  5.8 °C 29.89in /  1012.1hPa Calm     92% 0.00in /  0mm 0 W/m2
16:29 44.6 °F /  7 °C 42.4 °F /  5.8 °C 29.88in /  1011.7hPa Calm     92% 0.00in /  0mm 0 W/m2
16:34 44.5 °F /  6.9 °C 42.4 °F /  5.8 °C 29.88in /  1011.7hPa Calm     92% 0.00in /  0mm 0 W/m2
16:39 44.5 °F /  6.9 °C 42.5 °F /  5.8 °C 29.88in /  1011.7hPa Calm     92.7% 0.00in /  0mm 0 W/m2
16:44 44.5 °F /  6.9 °C 42.6 °F /  5.9 °C 29.89in /  1012.1hPa Calm     93% 0.00in /  0mm 0 W/m2
16:49 44.4 °F /  6.9 °C 42.5 °F /  5.8 °C 29.89in /  1012.1hPa Calm     93% 0.00in /  0mm 0 W/m2
16:54 44.4 °F /  6.9 °C 42.5 °F /  5.8 °C 29.89in /  1012.1hPa Calm     93% 0.00in /  0mm 0 W/m2
16:59 44.4 °F /  6.9 °C 42.5 °F /  5.8 °C 29.89in /  1012.1hPa Calm     93% 0.00in /  0mm 0 W/m2
17:04 44.4 °F /  6.9 °C 42.5 °F /  5.8 °C 29.89in /  1012.1hPa Calm     93% 0.00in /  0mm 0 W/m2
17:09 44.4 °F /  6.9 °C 42.5 °F /  5.8 °C 29.89in /  1012.1hPa Calm     93% 0.00in /  0mm 0 W/m2
17:14 44.4 °F /  6.9 °C 42.5 °F /  5.8 °C 29.90in /  1012.4hPa Calm     93% 0.00in /  0mm 0 W/m2
17:19 44.4 °F /  6.9 °C 42.5 °F /  5.8 °C 29.90in /  1012.4hPa Calm     93% 0.00in /  0mm 0 W/m2
17:24 44.4 °F /  6.9 °C 42.5 °F /  5.8 °C 29.90in /  1012.4hPa Calm     93% 0.00in /  0mm 0 W/m2
17:29 44.4 °F /  6.9 °C 42.5 °F /  5.8 °C 29.89in /  1012.1hPa Calm     93% 0.00in /  0mm 0 W/m2
17:34 44.4 °F /  6.9 °C 42.5 °F /  5.8 °C 29.90in /  1012.4hPa Calm     93% 0.00in /  0mm 0 W/m2
17:39 44.4 °F /  6.9 °C 42.5 °F /  5.8 °C 29.90in /  1012.4hPa Calm     93% 0.00in /  0mm 0 W/m2
17:44 44.4 °F /  6.9 °C 42.5 °F /  5.8 °C 29.90in /  1012.4hPa Calm     93% 0.00in /  0mm 0 W/m2
17:49 44.4 °F /  6.9 °C 42.5 °F /  5.8 °C 29.91in /  1012.8hPa Calm     93% 0.00in /  0mm 0 W/m2
17:54 44.4 °F /  6.9 °C 42.5 °F /  5.8 °C 29.91in /  1012.8hPa Calm     93% 0.00in /  0mm 0 W/m2
17:59 44.4 °F /  6.9 °C 42.5 °F /  5.8 °C 29.91in /  1012.8hPa Calm     93% 0.00in /  0mm 0 W/m2
18:04 44.4 °F /  6.9 °C 42.5 °F /  5.8 °C 29.91in /  1012.8hPa Calm     93% 0.00in /  0mm 0 W/m2
18:09 44.4 °F /  6.9 °C 42.5 °F /  5.8 °C 29.92in /  1013.1hPa Calm     93% 0.00in /  0mm 0 W/m2
18:14 44.3 °F /  6.8 °C 42.4 °F /  5.8 °C 29.92in /  1013.1hPa Calm     93% 0.00in /  0mm 0 W/m2
18:19 44.3 °F /  6.8 °C 42.4 °F /  5.8 °C 29.92in /  1013.1hPa Calm     93% 0.00in /  0mm 0 W/m2
18:24 44.3 °F /  6.8 °C 42.4 °F /  5.8 °C 29.92in /  1013.1hPa Calm     93% 0.00in /  0mm 0 W/m2
18:29 44.3 °F /  6.8 °C 42.4 °F /  5.8 °C 29.92in /  1013.1hPa Calm     93% 0.00in /  0mm 0 W/m2
18:34 44.3 °F /  6.8 °C 42.4 °F /  5.8 °C 29.92in /  1013.1hPa Calm     93% 0.00in /  0mm 0 W/m2
18:39 44.3 °F /  6.8 °C 42.6 °F /  5.9 °C 29.92in /  1013.1hPa Calm     93.6% 0.00in /  0mm 0 W/m2
18:44 44.3 °F /  6.8 °C 42.7 °F /  5.9 °C 29.92in /  1013.1hPa Calm     94% 0.00in /  0mm 0 W/m2
18:49 44.3 °F /  6.8 °C 42.7 °F /  5.9 °C 29.92in /  1013.1hPa Calm     94% 0.00in /  0mm 0 W/m2
18:54 44.2 °F /  6.8 °C 42.6 °F /  5.9 °C 29.92in /  1013.1hPa Calm     94% 0.00in /  0mm 0 W/m2
18:59 44.2 °F /  6.8 °C 42.6 °F /  5.9 °C 29.92in /  1013.1hPa Calm     94% 0.00in /  0mm 0 W/m2
19:04 44.2 °F /  6.8 °C 42.6 °F /  5.9 °C 29.92in /  1013.1hPa Calm     94% 0.00in /  0mm 0 W/m2
19:09 44.2 °F /  6.8 °C 42.6 °F /  5.9 °C 29.92in /  1013.1hPa Calm     94% 0.00in /  0mm 0 W/m2
19:14 44.2 °F /  6.8 °C 42.6 °F /  5.9 °C 29.92in /  1013.1hPa Calm     94% 0.00in /  0mm 0 W/m2
19:19 44.2 °F /  6.8 °C 42.6 °F /  5.9 °C 29.92in /  1013.1hPa Calm     94% 0.00in /  0mm 0 W/m2
19:24 44.2 °F /  6.8 °C 42.6 °F /  5.9 °C 29.92in /  1013.1hPa Calm     94% 0.00in /  0mm 0 W/m2
19:29 44.2 °F /  6.8 °C 42.6 °F /  5.9 °C 29.92in /  1013.1hPa Calm     94% 0.00in /  0mm 0 W/m2
19:34 44.1 °F /  6.7 °C 42.5 °F /  5.8 °C 29.92in /  1013.1hPa Calm     94% 0.00in /  0mm 0 W/m2
19:39 44.1 °F /  6.7 °C 42.5 °F /  5.8 °C 29.92in /  1013.1hPa Calm     94% 0.00in /  0mm 0 W/m2
19:44 44.1 °F /  6.7 °C 42.5 °F /  5.8 °C 29.92in /  1013.1hPa Calm     94% 0.00in /  0mm 0 W/m2
19:49 44.1 °F /  6.7 °C 42.5 °F /  5.8 °C 29.92in /  1013.1hPa Calm     94% 0.00in /  0mm 0 W/m2
19:54 44.1 °F /  6.7 °C 42.5 °F /  5.8 °C 29.92in /  1013.1hPa Calm     94% 0.00in /  0mm 0 W/m2
19:59 44.1 °F /  6.7 °C 42.5 °F /  5.8 °C 29.91in /  1012.8hPa Calm     94% 0.00in /  0mm 0 W/m2
20:00 44.1 °F /  6.7 °C 42.5 °F /  5.8 °C 29.91in /  1012.8hPa Calm     94% 0.00in /  0mm 0 W/m2
20:09 44.1 °F /  6.7 °C 42.5 °F /  5.8 °C 29.91in /  1012.8hPa Calm     94% 0.00in /  0mm 0 W/m2
20:14 44.1 °F /  6.7 °C 42.5 °F /  5.8 °C 29.91in /  1012.8hPa Calm     94% 0.00in /  0mm 0 W/m2
20:19 44.1 °F /  6.7 °C 42.5 °F /  5.8 °C 29.91in /  1012.8hPa Calm     94% 0.00in /  0mm 0 W/m2
20:24 44.1 °F /  6.7 °C 42.5 °F /  5.8 °C 29.91in /  1012.8hPa Calm     94% 0.01in /  0.25mm 0 W/m2
20:29 44.1 °F /  6.7 °C 42.5 °F /  5.8 °C 29.91in /  1012.8hPa Calm     94% 0.01in /  0.25mm 0 W/m2
20:34 44 °F /  6.7 °C 42.4 °F /  5.8 °C 29.92in /  1013.1hPa Calm     94% 0.01in /  0.25mm 0 W/m2
20:39 44 °F /  6.7 °C 42.4 °F /  5.8 °C 29.92in /  1013.1hPa Calm     94% 0.01in /  0.25mm 0 W/m2
20:44 44 °F /  6.7 °C 42.4 °F /  5.8 °C 29.92in /  1013.1hPa Calm     94% 0.01in /  0.25mm 0 W/m2
20:49 44 °F /  6.7 °C 42.4 °F /  5.8 °C 29.92in /  1013.1hPa Calm     94% 0.01in /  0.25mm 0 W/m2
20:54 44 °F /  6.7 °C 42.6 °F /  5.9 °C 29.92in /  1013.1hPa Calm     94.7% 0.01in /  0.25mm 0 W/m2
20:59 44 °F /  6.7 °C 42.6 °F /  5.9 °C 29.92in /  1013.1hPa Calm     95% 0.01in /  0.25mm 0 W/m2
21:04 43.9 °F /  6.6 °C 42.6 °F /  5.9 °C 29.92in /  1013.1hPa Calm     95% 0.01in /  0.25mm 0 W/m2
21:09 43.9 °F /  6.6 °C 42.6 °F /  5.9 °C 29.92in /  1013.1hPa Calm     95% 0.01in /  0.25mm 0 W/m2
21:14 43.9 °F /  6.6 °C 42.6 °F /  5.9 °C 29.92in /  1013.1hPa Calm     95% 0.01in /  0.25mm 0 W/m2
21:19 43.9 °F /  6.6 °C 42.5 °F /  5.8 °C 29.92in /  1013.1hPa Calm     95% 0.01in /  0.25mm 0 W/m2
21:24 43.8 °F /  6.6 °C 42.5 °F /  5.8 °C 29.92in /  1013.1hPa Calm     95% 0.01in /  0.25mm 0 W/m2
21:29 43.8 °F /  6.6 °C 42.5 °F /  5.8 °C 29.92in /  1013.1hPa Calm     95% 0.01in /  0.25mm 0 W/m2
21:34 43.8 °F /  6.6 °C 42.5 °F /  5.8 °C 29.91in /  1012.8hPa Calm     95% 0.01in /  0.25mm 0 W/m2
21:39 43.8 °F /  6.6 °C 42.5 °F /  5.8 °C 29.91in /  1012.8hPa Calm     95% 0.00in /  0mm 0 W/m2
21:44 43.8 °F /  6.6 °C 42.5 °F /  5.8 °C 29.91in /  1012.8hPa Calm     95% 0.00in /  0mm 0 W/m2
21:49 43.8 °F /  6.6 °C 42.5 °F /  5.8 °C 29.91in /  1012.8hPa Calm     95% 0.00in /  0mm 0 W/m2
21:54 43.8 °F /  6.6 °C 42.5 °F /  5.8 °C 29.91in /  1012.8hPa Calm     95% 0.00in /  0mm 0 W/m2
21:59 43.8 °F /  6.6 °C 42.5 °F /  5.8 °C 29.91in /  1012.8hPa Calm     95% 0.00in /  0mm 0 W/m2
22:04 43.8 °F /  6.6 °C 42.5 °F /  5.8 °C 29.91in /  1012.8hPa Calm     95% 0.01in /  0.25mm 0 W/m2
22:09 43.8 °F /  6.6 °C 42.5 °F /  5.8 °C 29.91in /  1012.8hPa Calm     95% 0.01in /  0.25mm 0 W/m2
22:14 43.8 °F /  6.6 °C 42.5 °F /  5.8 °C 29.91in /  1012.8hPa Calm     95% 0.01in /  0.25mm 0 W/m2
22:19 43.8 °F /  6.6 °C 42.5 °F /  5.8 °C 29.91in /  1012.8hPa Calm     95% 0.01in /  0.25mm 0 W/m2
22:24 43.8 °F /  6.6 °C 42.5 °F /  5.8 °C 29.92in /  1013.1hPa Calm     95% 0.01in /  0.25mm 0 W/m2
22:29 43.8 °F /  6.6 °C 42.5 °F /  5.8 °C 29.92in /  1013.1hPa Calm     95% 0.01in /  0.25mm 0 W/m2
22:34 43.8 °F /  6.6 °C 42.5 °F /  5.8 °C 29.91in /  1012.8hPa Calm     95% 0.01in /  0.25mm 0 W/m2
22:39 43.8 °F /  6.6 °C 42.5 °F /  5.8 °C 29.92in /  1013.1hPa Calm     95% 0.02in /  0.51mm 0 W/m2
22:44 43.8 °F /  6.6 °C 42.5 °F /  5.8 °C 29.92in /  1013.1hPa Calm     95% 0.02in /  0.51mm 0 W/m2
22:49 43.7 °F /  6.5 °C 42.4 °F /  5.8 °C 29.92in /  1013.1hPa Calm     95% 0.02in /  0.51mm 0 W/m2
22:54 43.7 °F /  6.5 °C 42.4 °F /  5.8 °C 29.92in /  1013.1hPa Calm     95% 0.02in /  0.51mm 0 W/m2
22:59 43.7 °F /  6.5 °C 42.4 °F /  5.8 °C 29.92in /  1013.1hPa Calm     95% 0.02in /  0.51mm 0 W/m2
23:00 43.7 °F /  6.5 °C 42.4 °F /  5.8 °C 29.91in /  1012.8hPa Calm     95% 0.02in /  0.51mm 0 W/m2
23:09 43.7 °F /  6.5 °C 42.4 °F /  5.8 °C 29.91in /  1012.8hPa Calm     95% 0.02in /  0.51mm 0 W/m2
23:14 43.7 °F /  6.5 °C 42.4 °F /  5.8 °C 29.91in /  1012.8hPa Calm     95% 0.02in /  0.51mm 0 W/m2
23:19 43.7 °F /  6.5 °C 42.3 °F /  5.7 °C 29.91in /  1012.8hPa Calm     95% 0.02in /  0.51mm 0 W/m2
23:24 43.7 °F /  6.5 °C 42.3 °F /  5.7 °C 29.91in /  1012.8hPa Calm     95% 0.02in /  0.51mm 0 W/m2
23:29 43.7 °F /  6.5 °C 42.3 °F /  5.7 °C 29.91in /  1012.8hPa Calm     95% 0.02in /  0.51mm 0 W/m2
23:34 43.6 °F /  6.4 °C 42.3 °F /  5.7 °C 29.90in /  1012.4hPa Calm     95% 0.02in /  0.51mm 0 W/m2
23:39 43.6 °F /  6.4 °C 42.3 °F /  5.7 °C 29.90in /  1012.4hPa Calm     95% 0.01in /  0.25mm 0 W/m2
23:44 43.6 °F /  6.4 °C 42.3 °F /  5.7 °C 29.90in /  1012.4hPa Calm     95% 0.01in /  0.25mm 0 W/m2
23:49 43.6 °F /  6.4 °C 42.3 °F /  5.7 °C 29.90in /  1012.4hPa Calm     95% 0.01in /  0.25mm 0 W/m2
23:54 43.6 °F /  6.4 °C 42.3 °F /  5.7 °C 29.90in /  1012.4hPa Calm     95% 0.01in /  0.25mm 0 W/m2
23:59 43.6 °F /  6.4 °C 42.3 °F /  5.7 °C 29.90in /  1012.4hPa Calm     95% 0.01in /  0.25mm 0 W/m2
Hartford County Weather
Compliments of Weather Underground - 2 mb